Terminal Aerodrome Forecast
Issued by NWS

Home | Current Version | Previous Version | Text Only | Print | Product List | Glossary On
Versions: 1 2 3 4 5 6 7 8 9 10 11 12 13 14 15 16 17 18 19 20 21 22 23 24 25
000
FTUS41 KOKX 011729
TAFHPN
TAF
KHPN 011729Z 0118/0218 36005KT P6SM SKC
     FM011900 14007KT P6SM SCT050
     FM020300 VRB03KT P6SM SCT040
      TEMPO 0208/0211 4SM BR
     FM021500 19005KT P6SM SCT050
      AMD NOT SKED=

USA.gov is the U.S. government's official web portal to all federal, state and local government web resources and services.